createdAt,value
2023-02-06T00:01:33.690Z,-2.87
2023-02-06T00:04:01.970Z,-2.95
2023-02-06T00:06:30.115Z,-2.97
2023-02-06T00:08:58.249Z,-2.90
2023-02-06T00:11:26.590Z,-2.95
2023-02-06T00:13:55.104Z,-3.03
2023-02-06T00:16:25.530Z,-3.10
2023-02-06T00:18:56.450Z,-3.43
2023-02-06T00:21:26.272Z,-2.98
2023-02-06T00:23:56.009Z,-2.93
2023-02-06T00:26:24.773Z,-3.22
2023-02-06T00:28:52.986Z,-3.20
2023-02-06T00:31:21.249Z,-3.28
2023-02-06T00:33:49.431Z,-4.01
2023-02-06T00:36:19.167Z,-3.36
2023-02-06T00:38:47.348Z,-3.55
2023-02-06T00:41:15.448Z,-3.35
2023-02-06T00:43:43.734Z,-3.78
2023-02-06T00:46:12.199Z,-3.38
2023-02-06T00:48:40.395Z,-3.41
2023-02-06T00:51:08.528Z,-3.41
2023-02-06T00:53:38.136Z,-3.44
2023-02-06T00:56:06.574Z,-3.34
2023-02-06T00:58:34.868Z,-3.40
2023-02-06T01:01:03.057Z,-3.36
2023-02-06T01:03:31.211Z,-3.42
2023-02-06T01:05:59.262Z,-3.40
2023-02-06T01:08:27.543Z,-3.42
2023-02-06T01:10:57.100Z,-3.44
2023-02-06T01:13:25.200Z,-3.49
2023-02-06T01:15:53.457Z,-3.51
2023-02-06T01:18:21.728Z,-3.49
2023-02-06T01:20:49.921Z,-3.51
2023-02-06T01:23:18.079Z,-3.66
2023-02-06T01:25:46.234Z,-3.56
2023-02-06T01:28:15.816Z,-3.38
2023-02-06T01:30:44.034Z,-3.32
2023-02-06T01:33:12.264Z,-3.40
2023-02-06T01:35:40.385Z,-3.48
2023-02-06T01:38:08.525Z,-3.53
2023-02-06T01:40:36.671Z,-4.43
2023-02-06T01:43:04.830Z,-3.73
2023-02-06T01:45:46.286Z,-3.65
2023-02-06T01:48:21.655Z,-4.25
2023-02-06T01:50:53.084Z,-3.63
2023-02-06T01:53:22.791Z,-3.76
2023-02-06T01:55:54.045Z,-3.58
2023-02-06T01:58:29.431Z,-3.75
2023-02-06T02:01:00.638Z,-3.67
2023-02-06T02:03:31.716Z,-4.36
2023-02-06T02:06:03.627Z,-3.70
2023-02-06T02:08:37.334Z,-3.66
2023-02-06T02:11:08.084Z,-3.77
2023-02-06T02:13:38.406Z,-3.82
2023-02-06T02:16:16.380Z,-3.60
2023-02-06T02:18:58.453Z,-3.85
2023-02-06T02:22:05.721Z,-3.85
2023-02-06T02:24:56.175Z,-3.79
2023-02-06T02:27:44.465Z,-3.77
2023-02-06T02:30:57.465Z,-3.88
2023-02-06T02:33:47.944Z,-3.87
2023-02-06T02:36:23.802Z,-3.80
2023-02-06T02:39:02.414Z,-3.80
2023-02-06T02:41:40.269Z,-3.93
2023-02-06T02:44:11.585Z,-3.99
2023-02-06T02:46:44.141Z,-4.08
2023-02-06T02:49:16.134Z,-4.12
2023-02-06T02:51:49.147Z,-4.14
2023-02-06T02:54:17.271Z,-4.05
2023-02-06T02:56:45.728Z,-4.06
2023-02-06T02:59:19.390Z,-4.16
2023-02-06T03:02:00.235Z,-5.31
2023-02-06T03:04:33.287Z,-4.16
2023-02-06T03:07:11.463Z,-4.23
2023-02-06T03:09:54.446Z,-4.09
2023-02-06T03:12:28.908Z,-4.12
2023-02-06T03:15:01.045Z,-4.16
2023-02-06T03:17:35.100Z,-4.06
2023-02-06T03:20:05.592Z,-3.96
2023-02-06T03:22:36.988Z,-4.46
2023-02-06T03:25:11.489Z,-4.22
2023-02-06T03:27:42.067Z,-4.33
2023-02-06T03:30:13.418Z,-4.15
2023-02-06T03:32:46.634Z,-4.40
2023-02-06T03:35:17.816Z,-4.57
2023-02-06T03:37:48.861Z,-4.58
2023-02-06T03:40:18.452Z,-4.36
2023-02-06T03:42:51.872Z,-4.38
2023-02-06T03:45:25.760Z,-4.60
2023-02-06T03:47:55.884Z,-4.31
2023-02-06T03:50:26.790Z,-4.28
2023-02-06T03:53:00.205Z,-4.32
2023-02-06T03:55:28.356Z,-4.38
2023-02-06T03:58:00.420Z,-4.53
2023-02-06T04:00:30.429Z,-4.44
2023-02-06T04:02:59.981Z,-4.48
2023-02-06T04:05:28.637Z,-5.28
2023-02-06T04:07:58.165Z,-4.46
2023-02-06T04:10:26.559Z,-4.36
2023-02-06T04:12:55.005Z,-4.79
2023-02-06T04:15:23.275Z,-4.38
2023-02-06T04:17:59.848Z,-4.37
2023-02-06T04:20:29.337Z,-4.61
2023-02-06T04:22:59.065Z,-4.66
2023-02-06T04:25:27.280Z,-5.62
2023-02-06T04:27:55.489Z,-4.63
2023-02-06T04:30:23.814Z,-4.57
2023-02-06T04:32:52.015Z,-4.62
2023-02-06T04:35:20.784Z,-4.60
2023-02-06T04:37:48.984Z,-4.62
2023-02-06T04:40:19.011Z,-4.71
2023-02-06T04:42:47.302Z,-4.79
2023-02-06T04:45:15.662Z,-5.24
2023-02-06T04:47:43.873Z,-4.52
2023-02-06T04:50:12.384Z,-4.58
2023-02-06T04:52:40.571Z,-4.52
2023-02-06T04:55:09.587Z,-4.58
2023-02-06T04:57:39.579Z,-5.95
2023-02-06T05:00:09.429Z,-5.06
2023-02-06T05:02:39.974Z,-4.69
2023-02-06T05:05:10.030Z,-4.78
2023-02-06T05:07:38.884Z,-4.63
2023-02-06T05:10:09.048Z,-4.50
2023-02-06T05:12:38.704Z,-4.53
2023-02-06T05:15:07.678Z,-4.40
2023-02-06T05:17:35.849Z,-4.39
2023-02-06T05:20:04.020Z,-4.46
2023-02-06T05:22:32.156Z,-4.48
2023-02-06T05:25:00.304Z,-4.58
2023-02-06T05:27:28.511Z,-4.60
2023-02-06T05:29:58.104Z,-4.52
2023-02-06T05:32:26.281Z,-4.57
2023-02-06T05:34:54.445Z,-5.06
2023-02-06T05:37:22.619Z,-4.63
2023-02-06T05:39:50.816Z,-4.54
2023-02-06T05:42:18.907Z,-4.48
2023-02-06T05:44:47.010Z,-4.53
2023-02-06T05:47:16.563Z,-4.49
2023-02-06T05:49:45.111Z,-4.73
2023-02-06T05:52:13.425Z,-4.78
2023-02-06T05:54:41.760Z,-4.51
2023-02-06T05:57:10.024Z,-4.54
2023-02-06T05:59:38.460Z,-4.47
2023-02-06T06:02:07.056Z,-4.54
2023-02-06T06:04:36.568Z,-4.50
2023-02-06T06:07:04.881Z,-4.51
2023-02-06T06:09:33.099Z,-4.49
2023-02-06T06:12:01.864Z,-4.82
2023-02-06T06:14:30.059Z,-4.48
2023-02-06T06:16:58.273Z,-4.71
2023-02-06T06:19:26.410Z,-4.46
2023-02-06T06:21:58.192Z,-4.43
2023-02-06T06:24:26.910Z,-4.46
2023-02-06T06:26:55.048Z,-4.51
2023-02-06T06:29:23.244Z,-4.35
2023-02-06T06:31:51.556Z,-4.37
2023-02-06T06:34:19.963Z,-4.55
2023-02-06T06:36:48.182Z,-4.21
2023-02-06T06:39:17.767Z,-4.25
2023-02-06T06:41:46.032Z,-4.31
2023-02-06T06:44:14.214Z,-4.32
2023-02-06T06:46:42.428Z,-4.38
2023-02-06T06:49:10.528Z,-4.85
2023-02-06T06:51:38.717Z,-4.53
2023-02-06T06:54:06.951Z,-4.52
2023-02-06T06:56:36.477Z,-4.43
2023-02-06T06:59:04.583Z,-4.40
2023-02-06T07:01:32.669Z,-4.27
2023-02-06T07:04:00.854Z,-4.42
2023-02-06T07:06:29.236Z,-4.39
2023-02-06T07:08:57.390Z,-4.77
2023-02-06T07:11:26.237Z,-4.36
2023-02-06T07:13:55.770Z,-4.30
2023-02-06T07:16:24.733Z,-4.31
2023-02-06T07:18:52.961Z,-4.22
2023-02-06T07:21:21.095Z,-4.13
2023-02-06T07:23:49.243Z,-4.95
2023-02-06T07:26:17.407Z,-4.21
2023-02-06T07:28:45.659Z,-3.77
2023-02-06T07:31:15.249Z,-3.72
2023-02-06T07:33:43.409Z,-3.59
2023-02-06T07:36:12.720Z,-3.57
2023-02-06T07:38:41.535Z,-3.33
2023-02-06T07:41:11.189Z,-3.11
2023-02-06T07:43:40.949Z,-3.06
2023-02-06T07:46:09.130Z,-2.86
2023-02-06T07:48:38.700Z,-4.17
2023-02-06T07:51:08.598Z,-2.86
2023-02-06T07:53:38.129Z,-3.00
2023-02-06T07:56:12.057Z,-3.72
2023-02-06T07:58:40.226Z,-3.54
2023-02-06T08:01:08.641Z,-4.40
2023-02-06T08:03:38.324Z,-3.58
2023-02-06T08:06:10.494Z,-3.49
2023-02-06T08:08:38.825Z,-3.49
2023-02-06T08:11:07.898Z,-3.35
2023-02-06T08:13:36.714Z,-3.26
2023-02-06T08:16:07.094Z,-3.17
2023-02-06T08:18:35.485Z,-3.42
2023-02-06T08:21:07.232Z,-2.95
2023-02-06T08:23:35.514Z,-2.83
2023-02-06T08:26:04.423Z,-2.70
2023-02-06T08:28:35.166Z,-2.63
2023-02-06T08:31:09.635Z,-2.52
2023-02-06T08:33:38.107Z,-2.93
2023-02-06T08:36:09.241Z,-2.53
2023-02-06T08:38:37.538Z,-2.62
2023-02-06T08:41:06.183Z,-3.54
2023-02-06T08:43:34.318Z,-2.33
2023-02-06T08:46:02.486Z,-2.24
2023-02-06T08:48:30.574Z,-2.12
2023-02-06T08:51:11.382Z,-2.06
2023-02-06T08:53:40.323Z,-2.10
2023-02-06T08:56:11.296Z,-2.23
2023-02-06T08:58:40.698Z,-2.31
2023-02-06T09:01:09.917Z,-2.86
2023-02-06T09:03:38.410Z,-2.52
2023-02-06T09:06:10.336Z,-2.59
2023-02-06T09:08:39.763Z,-2.46
2023-02-06T09:11:09.075Z,-2.63
2023-02-06T09:13:38.033Z,-2.75
2023-02-06T09:16:07.541Z,-3.41
2023-02-06T09:18:36.023Z,-2.21
2023-02-06T09:21:11.559Z,-1.95
2023-02-06T09:23:40.000Z,-1.87
2023-02-06T09:26:08.206Z,-1.77
2023-02-06T09:28:36.359Z,-1.69
2023-02-06T09:31:05.186Z,-1.55
2023-02-06T09:33:33.410Z,-1.38
2023-02-06T09:36:06.114Z,-1.13
2023-02-06T09:38:36.562Z,-0.90
2023-02-06T09:41:08.217Z,-0.70
2023-02-06T09:43:36.828Z,-0.54
2023-02-06T09:46:09.118Z,-0.15
2023-02-06T09:48:40.792Z,-0.28
2023-02-06T09:51:18.295Z,-0.77
2023-02-06T09:54:00.885Z,-0.20
2023-02-06T09:56:37.740Z,-0.90
2023-02-06T09:59:14.485Z,0.10
2023-02-06T10:01:47.592Z,-0.02
2023-02-06T10:04:39.337Z,-0.35
2023-02-06T10:07:19.932Z,-0.53
2023-02-06T10:09:53.632Z,-0.54
2023-02-06T10:12:26.540Z,-0.45
2023-02-06T10:14:59.904Z,-0.49
2023-02-06T10:17:32.366Z,-0.50
2023-02-06T10:20:03.958Z,-0.44
2023-02-06T10:22:40.290Z,-0.28
2023-02-06T10:25:22.403Z,-0.14
2023-02-06T10:27:55.953Z,0.02
2023-02-06T10:30:34.442Z,0.15
2023-02-06T10:33:20.298Z,0.06
2023-02-06T10:36:01.898Z,0.05
2023-02-06T10:38:44.152Z,0.21
2023-02-06T10:41:22.362Z,-0.11
2023-02-06T10:43:57.235Z,-0.49
2023-02-06T10:46:39.675Z,-0.59
2023-02-06T10:49:18.200Z,-0.45
2023-02-06T10:51:51.900Z,-0.26
2023-02-06T10:54:24.478Z,-0.34
2023-02-06T10:56:57.038Z,-0.41
2023-02-06T10:59:30.301Z,-0.37
2023-02-06T11:02:15.553Z,-0.26
2023-02-06T11:04:49.019Z,-0.48
2023-02-06T11:07:25.171Z,-0.84
2023-02-06T11:09:53.797Z,-0.64
2023-02-06T11:12:31.438Z,-0.51
2023-02-06T11:15:03.488Z,-0.35
2023-02-06T11:17:32.366Z,-0.29
2023-02-06T11:20:16.409Z,-0.20
2023-02-06T11:22:52.801Z,-0.18
2023-02-06T11:25:26.154Z,0.09
2023-02-06T11:27:56.475Z,-0.21
2023-02-06T11:30:36.468Z,-0.51
2023-02-06T11:33:07.491Z,-0.46
2023-02-06T11:35:40.090Z,-0.43
2023-02-06T11:38:16.150Z,-1.61
2023-02-06T11:40:45.161Z,-0.45
2023-02-06T11:43:23.051Z,-0.28
2023-02-06T11:46:06.062Z,0.05
2023-02-06T11:48:37.194Z,0.25
2023-02-06T11:51:06.805Z,0.65
2023-02-06T11:53:35.622Z,0.93
2023-02-06T11:56:07.898Z,1.05
2023-02-06T11:58:37.607Z,0.78
2023-02-06T12:01:09.626Z,1.15
2023-02-06T12:03:40.208Z,1.42
2023-02-06T12:06:14.267Z,1.52
2023-02-06T12:08:49.830Z,1.51
2023-02-06T12:11:26.488Z,0.97
2023-02-06T12:14:00.455Z,1.37
2023-02-06T12:16:29.055Z,0.66
2023-02-06T12:18:59.109Z,0.53
2023-02-06T12:21:33.890Z,0.31
2023-02-06T12:24:06.003Z,0.23
2023-02-06T12:26:38.253Z,0.35
2023-02-06T12:29:14.796Z,0.47
2023-02-06T12:31:47.802Z,0.54
2023-02-06T12:34:20.331Z,0.64
2023-02-06T12:37:00.213Z,0.53
2023-02-06T12:39:33.090Z,0.17
2023-02-06T12:42:33.710Z,0.26
2023-02-06T12:45:09.252Z,0.39
2023-02-06T12:47:44.817Z,-0.15
2023-02-06T12:50:18.288Z,0.30
2023-02-06T12:52:51.411Z,0.72
2023-02-06T12:55:24.724Z,-0.74
2023-02-06T12:57:54.212Z,1.10
2023-02-06T13:00:45.011Z,1.20
2023-02-06T13:03:30.350Z,1.37
2023-02-06T13:06:12.367Z,1.38
2023-02-06T13:08:46.271Z,1.57
2023-02-06T13:11:27.725Z,1.94
2023-02-06T13:14:06.033Z,1.98
2023-02-06T13:16:45.467Z,1.88
2023-02-06T13:19:29.379Z,1.65
2023-02-06T13:22:29.787Z,1.32
2023-02-06T13:24:59.256Z,1.05
2023-02-06T13:27:38.992Z,0.62
2023-02-06T13:30:48.425Z,0.43
2023-02-06T13:33:20.560Z,0.26
2023-02-06T13:35:58.838Z,0.18
2023-02-06T13:38:37.107Z,0.21
2023-02-06T13:41:29.419Z,-0.47
2023-02-06T13:44:00.773Z,0.09
2023-02-06T13:46:47.932Z,0.32
2023-02-06T13:49:39.726Z,0.48
2023-02-06T13:52:16.155Z,-0.94
2023-02-06T13:55:17.035Z,0.42
2023-02-06T13:58:01.775Z,-0.29
2023-02-06T14:00:33.169Z,-0.12
2023-02-06T14:03:07.995Z,-0.37
2023-02-06T14:05:52.779Z,-0.41
2023-02-06T14:08:28.176Z,-0.48
2023-02-06T14:11:31.186Z,-0.70
2023-02-06T14:14:28.592Z,-0.70
2023-02-06T14:17:08.084Z,-0.74
2023-02-06T14:19:44.322Z,-0.66
2023-02-06T14:22:25.106Z,-0.67
2023-02-06T14:25:13.145Z,-0.70
2023-02-06T14:27:55.209Z,-1.05
2023-02-06T14:30:36.355Z,-0.71
2023-02-06T14:33:19.839Z,-0.76
2023-02-06T14:35:59.305Z,-0.76
2023-02-06T14:38:45.002Z,-0.74
2023-02-06T14:41:13.437Z,-0.63
2023-02-06T14:43:45.794Z,-0.53
2023-02-06T14:46:17.194Z,-0.56
2023-02-06T14:48:48.444Z,-0.70
2023-02-06T14:51:23.788Z,-0.91
2023-02-06T14:53:58.382Z,-0.66
2023-02-06T14:56:30.420Z,-0.67
2023-02-06T14:59:09.677Z,-0.49
2023-02-06T15:01:37.902Z,-0.51
2023-02-06T15:04:12.497Z,-0.44
2023-02-06T15:06:42.748Z,-0.38
2023-02-06T15:09:26.327Z,-1.00
2023-02-06T15:11:57.546Z,-0.49
2023-02-06T15:14:27.762Z,-0.31
2023-02-06T15:16:59.931Z,-0.30
2023-02-06T15:19:30.173Z,-1.30
2023-02-06T15:22:02.136Z,-0.15
2023-02-06T15:25:06.064Z,-0.36
2023-02-06T15:27:35.921Z,-0.25
2023-02-06T15:30:17.885Z,-0.42
2023-02-06T15:32:50.219Z,-0.36
2023-02-06T15:35:24.072Z,-0.64
2023-02-06T15:37:54.103Z,-0.64
2023-02-06T15:40:28.010Z,-0.78
2023-02-06T15:42:56.891Z,-0.56
2023-02-06T15:45:28.409Z,-0.59
2023-02-06T15:47:57.396Z,-0.97
2023-02-06T15:50:28.586Z,-1.00
2023-02-06T15:52:57.341Z,-1.12
2023-02-06T15:55:29.979Z,-1.14
2023-02-06T15:57:59.830Z,-1.50
2023-02-06T16:00:30.842Z,-0.90
2023-02-06T16:03:03.334Z,-1.05
2023-02-06T16:05:33.945Z,-0.97
2023-02-06T16:08:04.671Z,-1.10
2023-02-06T16:10:38.151Z,-1.42
2023-02-06T16:13:12.542Z,-1.39
2023-02-06T16:15:42.237Z,-1.32
2023-02-06T16:18:27.402Z,-1.37
2023-02-06T16:21:12.901Z,-1.88
2023-02-06T16:23:49.407Z,-1.38
2023-02-06T16:26:20.686Z,-1.44
2023-02-06T16:28:58.564Z,-1.31
2023-02-06T16:31:28.115Z,-1.17
2023-02-06T16:34:03.275Z,-1.13
2023-02-06T16:36:33.680Z,-1.20
2023-02-06T16:39:04.349Z,-2.10
2023-02-06T16:41:37.187Z,-1.60
2023-02-06T16:44:13.164Z,-1.56
2023-02-06T16:46:41.401Z,-1.49
2023-02-06T16:49:13.234Z,-1.83
2023-02-06T16:51:43.297Z,-3.37
2023-02-06T16:54:20.286Z,-1.72
2023-02-06T16:56:50.584Z,-2.13
2023-02-06T16:59:18.829Z,-1.76
2023-02-06T17:01:47.139Z,-1.84
2023-02-06T17:04:15.829Z,-1.81
2023-02-06T17:06:44.128Z,-1.64
2023-02-06T17:09:16.045Z,-1.78
2023-02-06T17:11:44.184Z,-2.07
2023-02-06T17:14:13.838Z,-2.20
2023-02-06T17:16:42.023Z,-2.33
2023-02-06T17:19:14.991Z,-2.06
2023-02-06T17:21:43.196Z,-2.01
2023-02-06T17:24:11.346Z,-2.14
2023-02-06T17:26:39.551Z,-2.11
2023-02-06T17:29:07.656Z,-2.14
2023-02-06T17:31:37.388Z,-2.18
2023-02-06T17:34:05.580Z,-2.28
2023-02-06T17:36:39.673Z,-2.25
2023-02-06T17:39:08.537Z,-2.30
2023-02-06T17:41:36.680Z,-2.35
2023-02-06T17:44:05.107Z,-2.41
2023-02-06T17:46:33.353Z,-2.42
2023-02-06T17:49:02.978Z,-2.39
2023-02-06T17:51:31.182Z,-2.41
2023-02-06T17:53:59.960Z,-2.38
2023-02-06T17:56:28.211Z,-2.49
2023-02-06T17:58:56.406Z,-2.49
2023-02-06T18:01:25.509Z,-2.81
2023-02-06T18:03:54.190Z,-3.09
2023-02-06T18:06:23.808Z,-2.72
2023-02-06T18:08:52.005Z,-2.58
2023-02-06T18:11:22.201Z,-2.65
2023-02-06T18:13:51.176Z,-2.72
2023-02-06T18:16:21.830Z,-2.77
2023-02-06T18:18:50.573Z,-3.12
2023-02-06T18:21:20.697Z,-2.76
2023-02-06T18:23:50.387Z,-2.67
2023-02-06T18:26:19.574Z,-2.60
2023-02-06T18:28:47.767Z,-2.63
2023-02-06T18:31:28.879Z,-3.08
2023-02-06T18:33:58.778Z,-2.69
2023-02-06T18:36:27.831Z,-2.73
2023-02-06T18:38:57.791Z,-2.78
2023-02-06T18:41:43.395Z,-2.84
2023-02-06T18:44:12.477Z,-2.89
2023-02-06T18:46:41.030Z,-3.19
2023-02-06T18:49:09.636Z,-2.75
2023-02-06T18:51:37.916Z,-2.85
2023-02-06T18:54:10.126Z,-2.92
2023-02-06T18:56:38.354Z,-2.93
2023-02-06T18:59:07.199Z,-3.01
2023-02-06T19:01:35.897Z,-2.98
2023-02-06T19:04:04.190Z,-2.96
2023-02-06T19:06:36.608Z,-3.13
2023-02-06T19:09:09.637Z,-2.90
2023-02-06T19:11:39.192Z,-2.94
2023-02-06T19:14:10.139Z,-3.03
2023-02-06T19:16:39.438Z,-3.75
2023-02-06T19:19:08.782Z,-3.16
2023-02-06T19:21:37.064Z,-3.18
2023-02-06T19:24:06.258Z,-3.20
2023-02-06T19:26:43.155Z,-3.24
2023-02-06T19:29:14.791Z,-3.23
2023-02-06T19:31:43.196Z,-3.27
2023-02-06T19:34:11.748Z,-3.49
2023-02-06T19:36:40.242Z,-3.74
2023-02-06T19:39:12.517Z,-3.34
2023-02-06T19:41:42.529Z,-3.37
2023-02-06T19:44:16.173Z,-3.54
2023-02-06T19:46:46.327Z,-3.34
2023-02-06T19:49:19.313Z,-3.47
2023-02-06T19:51:51.802Z,-3.28
2023-02-06T19:54:20.456Z,-3.28
2023-02-06T19:56:50.479Z,-4.45
2023-02-06T19:59:20.985Z,-3.18
2023-02-06T20:01:51.252Z,-3.22
2023-02-06T20:04:22.911Z,-3.23
2023-02-06T20:06:51.321Z,-3.59
2023-02-06T20:09:21.578Z,-3.48
2023-02-06T20:11:53.750Z,-3.47
2023-02-06T20:14:22.879Z,-4.40
2023-02-06T20:16:51.158Z,-3.65
2023-02-06T20:19:21.970Z,-3.49
2023-02-06T20:21:53.169Z,-3.67
2023-02-06T20:24:23.606Z,-3.64
2023-02-06T20:26:56.021Z,-3.50
2023-02-06T20:29:27.618Z,-3.52
2023-02-06T20:31:56.787Z,-3.97
2023-02-06T20:34:27.001Z,-3.57
2023-02-06T20:36:55.949Z,-3.60
2023-02-06T20:39:24.517Z,-3.66
2023-02-06T20:41:54.588Z,-3.63
2023-02-06T20:44:24.415Z,-4.35
2023-02-06T20:46:52.665Z,-3.68
2023-02-06T20:49:23.169Z,-3.81
2023-02-06T20:51:52.767Z,-3.72
2023-02-06T20:54:21.891Z,-3.67
2023-02-06T20:56:52.405Z,-4.59
2023-02-06T20:59:22.376Z,-3.85
2023-02-06T21:01:50.618Z,-3.74
2023-02-06T21:04:19.741Z,-3.76
2023-02-06T21:06:50.084Z,-3.84
2023-02-06T21:09:19.404Z,-3.64
2023-02-06T21:11:50.138Z,-3.59
2023-02-06T21:14:19.283Z,-3.62
2023-02-06T21:16:49.698Z,-3.87
2023-02-06T21:19:21.398Z,-3.77
2023-02-06T21:21:50.305Z,-3.92
2023-02-06T21:24:19.190Z,-3.85
2023-02-06T21:26:47.365Z,-4.18
2023-02-06T21:29:16.619Z,-4.00
2023-02-06T21:31:46.351Z,-4.51
2023-02-06T21:34:19.367Z,-3.93
2023-02-06T21:36:48.356Z,-3.96
2023-02-06T21:39:19.277Z,-4.08
2023-02-06T21:41:51.796Z,-4.27
2023-02-06T21:44:20.012Z,-4.02
2023-02-06T21:46:48.377Z,-4.17
2023-02-06T21:49:18.201Z,-4.07
2023-02-06T21:51:46.811Z,-5.00
2023-02-06T21:54:14.972Z,-4.33
2023-02-06T21:56:43.255Z,-4.03
2023-02-06T21:59:12.856Z,-4.01
2023-02-06T22:01:42.487Z,-4.14
2023-02-06T22:04:12.150Z,-4.08
2023-02-06T22:06:42.026Z,-4.43
2023-02-06T22:09:15.261Z,-4.06
2023-02-06T22:11:43.552Z,-4.09
2023-02-06T22:14:13.171Z,-4.13
2023-02-06T22:16:42.257Z,-4.29
2023-02-06T22:19:12.230Z,-4.19
2023-02-06T22:21:42.244Z,-4.17
2023-02-06T22:24:12.796Z,-4.10
2023-02-06T22:26:41.662Z,-4.05
2023-02-06T22:29:13.455Z,-4.07
2023-02-06T22:31:43.563Z,-4.33
2023-02-06T22:34:16.542Z,-4.34
2023-02-06T22:36:46.885Z,-4.34
2023-02-06T22:39:16.488Z,-4.33
2023-02-06T22:41:46.132Z,-4.22
2023-02-06T22:44:16.607Z,-4.34
2023-02-06T22:46:46.511Z,-4.42
2023-02-06T22:49:14.824Z,-4.51
2023-02-06T22:51:43.310Z,-4.47
2023-02-06T22:54:14.125Z,-4.66
2023-02-06T22:56:42.939Z,-4.73
2023-02-06T22:59:13.740Z,-4.54
2023-02-06T23:01:44.534Z,-4.51
2023-02-06T23:04:15.189Z,-4.53
2023-02-06T23:06:44.019Z,-4.70
2023-02-06T23:09:16.893Z,-4.49
2023-02-06T23:11:45.953Z,-4.62
2023-02-06T23:14:15.759Z,-4.52
2023-02-06T23:16:44.190Z,-4.50
2023-02-06T23:19:14.418Z,-4.50
2023-02-06T23:21:44.099Z,-4.70
2023-02-06T23:24:13.055Z,-4.50
2023-02-06T23:26:45.058Z,-4.54
2023-02-06T23:29:17.312Z,-4.54
2023-02-06T23:31:46.071Z,-5.16
2023-02-06T23:34:14.881Z,-4.58
2023-02-06T23:36:43.780Z,-5.07
2023-02-06T23:39:12.727Z,-4.65
2023-02-06T23:41:41.142Z,-4.85
2023-02-06T23:44:11.891Z,-4.55
2023-02-06T23:46:41.302Z,-4.56
2023-02-06T23:49:10.191Z,-4.71
2023-02-06T23:51:39.050Z,-4.66
2023-02-06T23:54:08.234Z,-5.16
2023-02-06T23:56:36.964Z,-4.77
2023-02-06T23:59:06.237Z,-4.92
